createdAt,value
2018-01-26T00:00:23.489Z,6.20
2018-01-26T00:02:50.964Z,6.20
2018-01-26T00:05:18.446Z,6.20
2018-01-26T00:07:45.920Z,6.20
2018-01-26T00:10:13.400Z,6.20
2018-01-26T00:12:40.873Z,6.20
2018-01-26T00:15:08.379Z,6.20
2018-01-26T00:17:35.846Z,6.20
2018-01-26T00:20:03.321Z,6.20
2018-01-26T00:22:30.806Z,6.20
2018-01-26T00:24:58.280Z,6.30
2018-01-26T00:27:25.765Z,6.20
2018-01-26T00:29:54.005Z,6.20
2018-01-26T00:32:21.489Z,6.20
2018-01-26T00:34:50.019Z,6.30
2018-01-26T00:37:17.496Z,6.30
2018-01-26T00:39:44.968Z,6.20
2018-01-26T00:42:12.448Z,6.20
2018-01-26T00:44:40.688Z,6.20
2018-01-26T00:47:08.188Z,6.20
2018-01-26T00:49:36.429Z,6.30
2018-01-26T00:52:03.900Z,6.30
2018-01-26T00:54:31.382Z,6.30
2018-01-26T00:56:59.620Z,6.20
2018-01-26T00:59:27.105Z,6.20
2018-01-26T01:01:55.352Z,6.20
2018-01-26T01:04:22.834Z,6.20
2018-01-26T01:06:50.309Z,6.20
2018-01-26T01:09:22.932Z,6.10
2018-01-26T01:11:50.425Z,6.10
2018-01-26T01:14:17.901Z,6.10
2018-01-26T01:16:46.149Z,6.10
2018-01-26T01:19:13.623Z,6.10
2018-01-26T01:21:41.108Z,6.10
2018-01-26T01:24:08.792Z,6.10
2018-01-26T01:26:36.268Z,6.20
2018-01-26T01:29:03.744Z,6.10
2018-01-26T01:31:31.224Z,6.20
2018-01-26T01:33:58.697Z,6.10
2018-01-26T01:36:26.941Z,6.10
2018-01-26T01:38:54.467Z,6.00
2018-01-26T01:41:22.681Z,6.10
2018-01-26T01:43:50.157Z,6.10
2018-01-26T01:46:18.405Z,6.10
2018-01-26T01:48:57.807Z,6.10
2018-01-26T01:51:25.302Z,6.10
2018-01-26T01:53:52.775Z,6.00
2018-01-26T01:56:20.252Z,6.00
2018-01-26T02:01:54.628Z,6.00
2018-01-26T02:04:22.105Z,6.10
2018-01-26T02:06:49.581Z,6.00
2018-01-26T02:09:17.061Z,6.00
2018-01-26T02:11:45.315Z,6.00
2018-01-26T02:14:12.801Z,6.00
2018-01-26T02:16:41.051Z,6.00
2018-01-26T02:19:08.531Z,6.00
2018-01-26T02:21:36.786Z,6.00
2018-01-26T02:24:21.981Z,6.00
2018-01-26T02:26:50.234Z,6.00
2018-01-26T02:29:17.724Z,6.00
2018-01-26T02:31:45.977Z,6.00
2018-01-26T02:34:13.464Z,6.00
2018-01-26T02:36:41.718Z,6.00
2018-01-26T02:39:09.198Z,6.00
2018-01-26T02:41:37.463Z,6.00
2018-01-26T02:44:05.715Z,6.00
2018-01-26T02:46:33.208Z,6.00
2018-01-26T02:49:01.454Z,6.00
2018-01-26T02:51:28.933Z,6.00
2018-01-26T02:53:57.183Z,5.90
2018-01-26T02:56:24.683Z,5.90
2018-01-26T02:58:52.924Z,6.00
2018-01-26T03:01:20.413Z,6.00
2018-01-26T03:03:48.676Z,6.00
2018-01-26T03:06:16.157Z,6.00
2018-01-26T03:08:43.651Z,5.90
2018-01-26T03:11:11.135Z,6.00
2018-01-26T03:13:38.613Z,6.00
2018-01-26T03:16:06.863Z,6.00
2018-01-26T03:18:34.342Z,6.00
2018-01-26T03:21:01.808Z,6.00
2018-01-26T03:23:30.070Z,6.00
2018-01-26T03:25:57.554Z,6.00
2018-01-26T03:28:25.815Z,6.00
2018-01-26T03:30:53.302Z,6.00
2018-01-26T03:33:20.800Z,6.00
2018-01-26T03:35:48.272Z,6.00
2018-01-26T03:38:15.748Z,6.00
2018-01-26T03:40:43.994Z,6.00
2018-01-26T03:43:11.473Z,6.00
2018-01-26T03:45:38.960Z,6.00
2018-01-26T03:48:07.210Z,6.00
2018-01-26T03:50:34.699Z,6.00
2018-01-26T03:53:02.955Z,5.90
2018-01-26T03:55:31.197Z,5.90
2018-01-26T03:57:58.667Z,5.90
2018-01-26T04:00:26.153Z,5.90
2018-01-26T04:02:54.419Z,5.80
2018-01-26T04:05:21.911Z,5.80
2018-01-26T04:07:49.385Z,5.80
2018-01-26T04:10:16.870Z,5.90
2018-01-26T04:12:44.359Z,5.80
2018-01-26T04:15:12.609Z,5.70
2018-01-26T04:17:40.096Z,5.70
2018-01-26T04:20:07.577Z,5.80
2018-01-26T04:22:35.062Z,5.70
2018-01-26T04:25:02.529Z,5.70
2018-01-26T04:27:30.022Z,5.80
2018-01-26T04:29:57.488Z,5.70
2018-01-26T04:32:25.742Z,5.70
2018-01-26T04:34:53.223Z,5.70
2018-01-26T04:37:20.718Z,5.80
2018-01-26T04:39:48.207Z,5.80
2018-01-26T04:42:15.677Z,5.70
2018-01-26T04:44:43.175Z,5.70
2018-01-26T04:47:11.424Z,5.60
2018-01-26T04:49:38.918Z,5.60
2018-01-26T04:52:06.406Z,5.50
2018-01-26T04:54:33.896Z,5.60
2018-01-26T04:57:01.365Z,5.60
2018-01-26T04:59:28.862Z,5.50
2018-01-26T05:01:56.336Z,5.50
2018-01-26T05:04:23.830Z,5.50
2018-01-26T05:06:51.318Z,5.50
2018-01-26T05:09:19.830Z,5.60
2018-01-26T05:11:47.318Z,5.60
2018-01-26T05:14:14.797Z,5.70
2018-01-26T05:16:42.286Z,5.70
2018-01-26T05:19:14.574Z,5.70
2018-01-26T05:21:42.056Z,5.70
2018-01-26T05:24:09.801Z,5.70
2018-01-26T05:26:37.294Z,5.70
2018-01-26T05:29:04.765Z,5.70
2018-01-26T05:31:32.258Z,5.80
2018-01-26T05:33:59.736Z,5.90
2018-01-26T05:36:27.224Z,5.90
2018-01-26T05:38:54.697Z,5.90
2018-01-26T05:41:22.195Z,6.00
2018-01-26T05:43:49.675Z,5.90
2018-01-26T05:46:17.158Z,6.00
2018-01-26T05:48:44.649Z,6.00
2018-01-26T05:51:12.900Z,6.00
2018-01-26T05:53:40.386Z,6.00
2018-01-26T05:56:08.666Z,6.00
2018-01-26T05:58:36.915Z,6.10
2018-01-26T06:01:04.384Z,6.10
2018-01-26T06:03:31.894Z,6.10
2018-01-26T06:05:59.369Z,6.00
2018-01-26T06:08:26.850Z,6.00
2018-01-26T06:10:54.333Z,5.90
2018-01-26T06:13:21.821Z,5.90
2018-01-26T06:15:49.329Z,5.90
2018-01-26T06:18:16.822Z,5.90
2018-01-26T06:20:44.312Z,6.00
2018-01-26T06:23:11.806Z,6.00
2018-01-26T06:25:39.299Z,5.90
2018-01-26T06:28:06.769Z,5.90
2018-01-26T06:30:34.271Z,5.90
2018-01-26T06:33:01.741Z,5.90
2018-01-26T06:35:29.226Z,5.90
2018-01-26T06:37:56.711Z,5.90
2018-01-26T06:40:24.199Z,5.90
2018-01-26T06:42:51.663Z,6.00
2018-01-26T06:45:19.158Z,6.00
2018-01-26T06:47:47.406Z,6.00
2018-01-26T06:50:14.884Z,6.00
2018-01-26T06:52:42.361Z,6.00
2018-01-26T06:55:09.841Z,6.00
2018-01-26T06:57:37.317Z,6.00
2018-01-26T07:00:04.799Z,5.90
2018-01-26T07:02:32.286Z,6.00
2018-01-26T07:04:59.778Z,5.90
2018-01-26T07:07:27.256Z,5.90
2018-01-26T07:09:54.746Z,6.00
2018-01-26T07:12:22.997Z,6.00
2018-01-26T07:14:50.482Z,6.00
2018-01-26T07:17:18.729Z,5.90
2018-01-26T07:19:46.222Z,5.90
2018-01-26T07:22:14.465Z,5.90
2018-01-26T07:24:41.947Z,5.90
2018-01-26T07:27:09.437Z,5.90
2018-01-26T07:29:36.912Z,6.00
2018-01-26T07:32:04.407Z,6.00
2018-01-26T07:34:31.887Z,5.90
2018-01-26T07:37:00.141Z,5.90
2018-01-26T07:39:27.608Z,5.90
2018-01-26T07:41:55.098Z,5.90
2018-01-26T07:44:22.587Z,5.90
2018-01-26T07:46:50.079Z,6.00
2018-01-26T07:49:19.080Z,6.00
2018-01-26T07:51:46.572Z,6.00
2018-01-26T07:54:14.053Z,6.00
2018-01-26T07:56:41.546Z,6.00
2018-01-26T07:59:09.085Z,6.00
2018-01-26T08:01:36.552Z,6.00
2018-01-26T08:04:04.041Z,6.00
2018-01-26T08:06:32.289Z,6.00
2018-01-26T08:08:59.787Z,6.00
2018-01-26T08:11:28.037Z,6.10
2018-01-26T08:13:55.542Z,6.10
2018-01-26T08:16:23.026Z,6.00
2018-01-26T08:18:50.501Z,6.00
2018-01-26T08:21:18.805Z,6.10
2018-01-26T08:23:47.045Z,6.10
2018-01-26T08:26:14.549Z,6.10
2018-01-26T08:28:42.813Z,6.20
2018-01-26T08:31:10.303Z,6.20
2018-01-26T08:33:37.786Z,6.30
2018-01-26T08:36:05.348Z,6.30
2018-01-26T08:38:32.804Z,6.30
2018-01-26T08:41:00.297Z,6.30
2018-01-26T08:43:27.783Z,6.40
2018-01-26T08:45:56.039Z,6.40
2018-01-26T08:48:23.520Z,6.40
2018-01-26T08:50:51.783Z,6.40
2018-01-26T08:53:20.030Z,6.40
2018-01-26T08:55:47.770Z,6.40
2018-01-26T08:58:15.250Z,6.40
2018-01-26T09:00:42.748Z,6.60
2018-01-26T09:03:10.988Z,6.50
2018-01-26T09:05:38.477Z,6.50
2018-01-26T09:08:06.730Z,6.70
2018-01-26T09:10:34.993Z,6.70
2018-01-26T09:13:02.460Z,6.70
2018-01-26T09:15:29.946Z,6.70
2018-01-26T09:17:58.206Z,6.80
2018-01-26T09:20:25.690Z,6.80
2018-01-26T09:22:53.953Z,6.80
2018-01-26T09:25:22.659Z,6.70
2018-01-26T09:27:50.414Z,6.70
2018-01-26T09:30:18.652Z,6.80
2018-01-26T09:32:46.146Z,6.80
2018-01-26T09:35:14.385Z,7.00
2018-01-26T09:37:41.885Z,7.00
2018-01-26T09:40:10.126Z,7.00
2018-01-26T09:42:37.624Z,7.00
2018-01-26T09:45:05.874Z,6.90
2018-01-26T09:47:33.366Z,6.90
2018-01-26T09:50:00.845Z,6.90
2018-01-26T09:52:28.329Z,7.00
2018-01-26T09:54:55.811Z,7.00
2018-01-26T09:57:23.535Z,6.90
2018-01-26T09:59:51.019Z,6.80
2018-01-26T10:02:18.506Z,6.90
2018-01-26T10:04:46.757Z,7.00
2018-01-26T10:07:14.243Z,6.90
2018-01-26T10:09:42.491Z,7.00
2018-01-26T10:12:09.969Z,6.90
2018-01-26T10:14:37.516Z,6.90
2018-01-26T10:17:05.211Z,7.00
2018-01-26T10:19:32.754Z,6.90
2018-01-26T10:22:00.234Z,6.90
2018-01-26T10:24:27.773Z,7.00
2018-01-26T10:26:55.221Z,7.00
2018-01-26T10:29:22.710Z,6.90
2018-01-26T10:31:50.186Z,7.00
2018-01-26T10:34:17.660Z,7.10
2018-01-26T10:36:45.139Z,7.10
2018-01-26T10:39:12.645Z,7.10
2018-01-26T10:41:40.891Z,7.30
2018-01-26T10:44:08.370Z,7.30
2018-01-26T10:46:36.620Z,7.30
2018-01-26T10:49:04.099Z,7.30
2018-01-26T10:51:32.351Z,7.20
2018-01-26T10:53:59.820Z,7.20
2018-01-26T10:56:27.306Z,7.20
2018-01-26T10:58:55.540Z,7.10
2018-01-26T11:01:23.031Z,7.10
2018-01-26T11:03:51.269Z,7.30
2018-01-26T11:06:18.767Z,7.30
2018-01-26T11:08:47.026Z,7.30
2018-01-26T11:11:14.504Z,7.20
2018-01-26T11:13:42.750Z,7.20
2018-01-26T11:16:10.238Z,7.20
2018-01-26T11:18:38.476Z,7.20
2018-01-26T11:21:05.966Z,7.20
2018-01-26T11:23:34.196Z,7.10
2018-01-26T11:26:01.675Z,7.10
2018-01-26T11:28:29.156Z,7.20
2018-01-26T11:30:56.633Z,7.20
2018-01-26T11:33:24.889Z,7.10
2018-01-26T11:35:52.379Z,7.00
2018-01-26T11:38:19.856Z,7.10
2018-01-26T11:40:47.332Z,7.10
2018-01-26T11:43:14.834Z,7.20
2018-01-26T11:45:43.086Z,7.10
2018-01-26T11:48:10.574Z,7.10
2018-01-26T11:50:38.827Z,7.20
2018-01-26T11:53:06.308Z,7.20
2018-01-26T11:55:34.562Z,7.40
2018-01-26T11:58:02.044Z,7.40
2018-01-26T12:00:30.293Z,7.50
2018-01-26T12:02:57.775Z,7.50
2018-01-26T12:05:26.016Z,7.50
2018-01-26T12:07:53.497Z,7.50
2018-01-26T12:10:20.989Z,7.50
2018-01-26T12:12:48.478Z,7.40
2018-01-26T12:15:15.948Z,7.50
2018-01-26T12:17:43.425Z,7.50
2018-01-26T12:20:10.918Z,7.50
2018-01-26T12:22:38.393Z,7.40
2018-01-26T12:25:06.302Z,7.50
2018-01-26T12:27:34.172Z,7.60
2018-01-26T12:30:02.140Z,7.60
2018-01-26T12:32:30.109Z,7.70
2018-01-26T12:34:58.080Z,7.60
2018-01-26T12:37:25.579Z,7.60
2018-01-26T12:39:53.104Z,7.70
2018-01-26T12:42:20.652Z,7.70
2018-01-26T12:44:48.183Z,7.70
2018-01-26T12:47:15.696Z,7.70
2018-01-26T12:49:43.988Z,7.80
2018-01-26T12:52:12.293Z,7.80
2018-01-26T12:54:39.812Z,7.80
2018-01-26T12:57:07.306Z,7.80
2018-01-26T12:59:34.829Z,7.90
2018-01-26T13:02:02.306Z,7.90
2018-01-26T13:04:30.602Z,7.70
2018-01-26T13:06:58.138Z,7.70
2018-01-26T13:09:26.448Z,7.80
2018-01-26T13:11:53.986Z,7.80
2018-01-26T13:14:21.496Z,7.70
2018-01-26T13:16:49.015Z,7.70
2018-01-26T13:19:16.542Z,7.60
2018-01-26T13:21:44.025Z,7.80
2018-01-26T13:24:11.543Z,7.70
2018-01-26T13:26:39.075Z,7.70
2018-01-26T13:29:06.609Z,7.70
2018-01-26T13:31:34.131Z,7.70
2018-01-26T13:34:01.651Z,7.70
2018-01-26T13:36:29.123Z,7.70
2018-01-26T13:38:56.650Z,7.70
2018-01-26T13:41:24.117Z,7.80
2018-01-26T13:43:51.587Z,7.80
2018-01-26T13:46:19.066Z,7.80
2018-01-26T13:48:46.548Z,7.80
2018-01-26T13:51:14.048Z,7.70
2018-01-26T13:53:41.543Z,7.70
2018-01-26T13:56:09.004Z,7.60
2018-01-26T13:58:36.514Z,7.60
2018-01-26T14:01:04.091Z,7.60
2018-01-26T14:03:31.601Z,7.50
2018-01-26T14:05:59.068Z,7.50
2018-01-26T14:08:27.315Z,7.50
2018-01-26T14:10:54.801Z,7.50
2018-01-26T14:13:23.042Z,7.40
2018-01-26T14:15:50.527Z,7.40
2018-01-26T14:18:17.993Z,7.40
2018-01-26T14:20:46.242Z,7.40
2018-01-26T14:23:13.707Z,7.40
2018-01-26T14:25:41.197Z,7.30
2018-01-26T14:30:59.712Z,7.40
2018-01-26T14:33:27.186Z,7.40
2018-01-26T14:35:54.660Z,7.40
2018-01-26T14:38:22.146Z,7.30
2018-01-26T14:40:49.628Z,7.30
2018-01-26T14:43:17.102Z,7.30
2018-01-26T14:45:44.616Z,7.30
2018-01-26T14:48:12.837Z,7.30
2018-01-26T14:50:40.333Z,7.30
2018-01-26T14:53:08.569Z,7.30
2018-01-26T14:55:36.049Z,7.30
2018-01-26T14:58:03.565Z,7.20
2018-01-26T15:00:31.047Z,7.20
2018-01-26T15:02:58.528Z,7.10
2018-01-26T15:05:26.015Z,7.10
2018-01-26T15:07:54.248Z,7.10
2018-01-26T15:10:21.729Z,7.10
2018-01-26T15:12:49.214Z,7.00
2018-01-26T15:15:16.681Z,7.00
2018-01-26T15:17:44.177Z,7.00
2018-01-26T15:20:11.644Z,6.90
2018-01-26T15:22:39.138Z,6.90
2018-01-26T15:25:07.393Z,6.80
2018-01-26T15:27:34.898Z,6.70
2018-01-26T15:30:02.372Z,6.80
2018-01-26T15:32:29.879Z,6.70
2018-01-26T15:34:57.380Z,6.70
2018-01-26T15:37:24.879Z,6.70
2018-01-26T15:39:52.364Z,6.70
2018-01-26T15:42:21.949Z,6.60
2018-01-26T15:44:49.826Z,6.60
2018-01-26T15:47:17.789Z,6.60
2018-01-26T15:49:45.337Z,6.60
2018-01-26T15:52:12.864Z,6.50
2018-01-26T15:54:40.410Z,6.50
2018-01-26T15:57:07.884Z,6.40
2018-01-26T15:59:35.376Z,6.30
2018-01-26T16:02:02.904Z,6.30
2018-01-26T16:04:30.398Z,6.20
2018-01-26T16:06:57.927Z,6.20
2018-01-26T16:09:25.586Z,6.10
2018-01-26T16:11:53.160Z,6.10
2018-01-26T16:14:20.684Z,6.00
2018-01-26T16:16:48.434Z,5.90
2018-01-26T16:19:16.682Z,5.80
2018-01-26T16:21:44.185Z,5.80
2018-01-26T16:24:11.718Z,5.70
2018-01-26T16:26:39.983Z,5.60
2018-01-26T16:29:07.456Z,5.60
2018-01-26T16:31:34.980Z,5.50
2018-01-26T16:34:02.462Z,5.50
2018-01-26T16:36:29.999Z,5.50
2018-01-26T16:38:57.650Z,5.50
2018-01-26T16:41:25.646Z,5.50
2018-01-26T16:43:53.788Z,5.50
2018-01-26T16:46:21.648Z,5.60
2018-01-26T16:48:49.217Z,5.60
2018-01-26T16:51:16.739Z,5.60
2018-01-26T16:53:45.253Z,5.80
2018-01-26T16:56:12.788Z,5.70
2018-01-26T16:58:40.283Z,5.90
2018-01-26T17:01:07.813Z,6.00
2018-01-26T17:03:35.493Z,6.10
2018-01-26T17:06:04.006Z,6.20
2018-01-26T17:08:31.988Z,6.20
2018-01-26T17:10:59.465Z,6.30
2018-01-26T17:13:27.717Z,6.70
2018-01-26T17:15:55.189Z,6.60
2018-01-26T17:18:22.690Z,6.50
2018-01-26T17:20:50.155Z,6.70
2018-01-26T17:23:17.706Z,6.50
2018-01-26T17:25:45.235Z,6.60
2018-01-26T17:28:13.494Z,6.50
2018-01-26T17:30:40.985Z,6.40
2018-01-26T17:33:08.470Z,6.40
2018-01-26T17:35:35.967Z,6.30
2018-01-26T17:38:03.454Z,6.30
2018-01-26T17:40:31.700Z,6.10
2018-01-26T17:42:59.241Z,6.10
2018-01-26T17:45:27.104Z,6.00
2018-01-26T17:47:54.619Z,5.90
2018-01-26T17:50:22.916Z,5.70
2018-01-26T17:52:50.388Z,5.70
2018-01-26T17:55:17.882Z,5.60
2018-01-26T17:57:45.422Z,5.50
2018-01-26T18:00:12.927Z,5.40
2018-01-26T18:02:41.182Z,5.30
2018-01-26T18:05:08.722Z,5.30
2018-01-26T18:07:36.362Z,5.20
2018-01-26T18:10:03.889Z,5.20
2018-01-26T18:12:32.147Z,5.00
2018-01-26T18:14:59.621Z,5.00
2018-01-26T18:17:27.882Z,4.90
2018-01-26T18:19:55.759Z,4.90
2018-01-26T18:22:23.299Z,4.90
2018-01-26T18:24:50.776Z,4.90
2018-01-26T18:27:19.082Z,4.80
2018-01-26T18:29:46.545Z,4.80
2018-01-26T18:32:14.316Z,4.70
2018-01-26T18:34:42.560Z,4.70
2018-01-26T18:37:10.839Z,4.60
2018-01-26T18:39:38.354Z,4.60
2018-01-26T18:42:05.892Z,4.50
2018-01-26T18:44:33.387Z,4.50
2018-01-26T18:47:00.870Z,4.50
2018-01-26T18:49:29.167Z,4.40
2018-01-26T18:51:56.650Z,4.40
2018-01-26T18:54:24.193Z,4.40
2018-01-26T18:56:51.671Z,4.40
2018-01-26T18:59:19.195Z,4.40
2018-01-26T19:01:46.734Z,4.30
2018-01-26T19:04:14.273Z,4.30
2018-01-26T19:06:41.791Z,4.30
2018-01-26T19:09:09.344Z,4.30
2018-01-26T19:11:36.877Z,4.30
2018-01-26T19:14:05.172Z,4.20
2018-01-26T19:16:33.482Z,4.20
2018-01-26T19:19:01.018Z,4.10
2018-01-26T19:21:28.562Z,4.20
2018-01-26T19:23:56.858Z,4.00
2018-01-26T19:26:24.342Z,4.00
2018-01-26T19:28:51.873Z,4.00
2018-01-26T19:31:19.353Z,3.90
2018-01-26T19:33:46.834Z,4.00
2018-01-26T19:36:14.330Z,4.10
2018-01-26T19:38:42.569Z,4.00
2018-01-26T19:41:10.113Z,4.00
2018-01-26T19:43:37.695Z,4.00
2018-01-26T19:46:05.222Z,3.90
2018-01-26T19:48:32.739Z,4.00
2018-01-26T19:51:01.043Z,4.10
2018-01-26T19:53:28.577Z,4.10
2018-01-26T19:55:56.874Z,4.20
2018-01-26T19:58:24.400Z,4.20
2018-01-26T20:00:51.922Z,4.20
2018-01-26T20:03:30.392Z,4.20
2018-01-26T20:06:04.471Z,4.30
2018-01-26T20:08:37.771Z,4.30
2018-01-26T20:11:05.254Z,4.30
2018-01-26T20:13:33.539Z,4.70
2018-01-26T20:16:01.823Z,4.70
2018-01-26T20:18:30.118Z,4.70
2018-01-26T20:20:57.656Z,4.70
2018-01-26T20:23:25.926Z,4.70
2018-01-26T20:25:54.207Z,4.70
2018-01-26T20:28:22.518Z,4.70
2018-01-26T20:30:50.051Z,4.70
2018-01-26T20:33:18.347Z,4.70
2018-01-26T20:35:45.877Z,4.70
2018-01-26T20:38:14.167Z,4.70
2018-01-26T20:40:42.467Z,4.70
2018-01-26T20:43:09.945Z,4.70
2018-01-26T20:45:37.431Z,4.70
2018-01-26T20:48:04.964Z,4.60
2018-01-26T20:50:32.482Z,4.70
2018-01-26T20:53:00.786Z,4.70
2018-01-26T20:55:28.321Z,4.70
2018-01-26T20:57:55.852Z,4.80
2018-01-26T21:00:23.383Z,4.80
2018-01-26T21:02:50.867Z,4.70
2018-01-26T21:05:18.366Z,4.80
2018-01-26T21:07:45.893Z,4.70
2018-01-26T21:10:13.429Z,4.70
2018-01-26T21:12:40.913Z,4.70
2018-01-26T21:15:08.453Z,4.70
2018-01-26T21:17:35.979Z,4.70
2018-01-26T21:20:03.507Z,4.70
2018-01-26T21:22:31.796Z,4.70
2018-01-26T21:25:00.094Z,4.70
2018-01-26T21:27:27.630Z,4.70
2018-01-26T21:29:55.898Z,4.70
2018-01-26T21:32:24.201Z,4.70
2018-01-26T21:34:51.719Z,4.70
2018-01-26T21:37:19.247Z,4.70
2018-01-26T21:39:46.763Z,4.80
2018-01-26T21:42:15.052Z,4.90
2018-01-26T21:44:42.582Z,4.80
2018-01-26T21:47:10.886Z,4.90
2018-01-26T21:49:57.920Z,4.90
2018-01-26T21:52:25.466Z,4.90
2018-01-26T21:54:52.988Z,4.80
2018-01-26T21:57:20.516Z,4.80
2018-01-26T21:59:48.041Z,4.80
2018-01-26T22:02:15.571Z,4.80
2018-01-26T22:04:48.890Z,4.70
2018-01-26T22:07:22.099Z,4.80
2018-01-26T22:09:49.577Z,4.80
2018-01-26T22:12:17.181Z,4.70
2018-01-26T22:14:44.695Z,4.70
2018-01-26T22:17:12.211Z,4.70
2018-01-26T22:19:40.512Z,4.60
2018-01-26T22:22:08.031Z,4.60
2018-01-26T22:24:35.570Z,4.60
2018-01-26T22:27:03.111Z,4.60
2018-01-26T22:29:30.655Z,4.60
2018-01-26T22:31:58.194Z,4.60
2018-01-26T22:34:25.724Z,4.60
2018-01-26T22:36:53.197Z,4.50
2018-01-26T22:39:37.268Z,4.50
2018-01-26T22:42:04.784Z,4.40
2018-01-26T22:44:32.333Z,4.30
2018-01-26T22:46:59.870Z,4.20
2018-01-26T22:49:27.341Z,4.10
2018-01-26T22:51:54.875Z,4.00
2018-01-26T22:54:22.351Z,3.90
2018-01-26T22:56:49.884Z,3.90
2018-01-26T22:59:17.354Z,3.80
2018-01-26T23:01:44.883Z,3.80
2018-01-26T23:04:13.167Z,3.80
2018-01-26T23:06:41.464Z,3.90
2018-01-26T23:09:08.937Z,3.80
2018-01-26T23:11:36.412Z,3.90
2018-01-26T23:14:03.894Z,4.00
2018-01-26T23:16:31.438Z,4.10
2018-01-26T23:18:58.946Z,4.20
2018-01-26T23:21:26.421Z,4.40
2018-01-26T23:23:53.960Z,4.50
2018-01-26T23:26:22.191Z,4.70
2018-01-26T23:28:49.677Z,4.70
2018-01-26T23:31:17.974Z,4.70
2018-01-26T23:33:45.504Z,4.70
2018-01-26T23:36:13.034Z,4.80
2018-01-26T23:38:40.471Z,4.80
2018-01-26T23:41:07.995Z,4.80
2018-01-26T23:43:36.313Z,4.80
2018-01-26T23:46:03.843Z,4.80
2018-01-26T23:48:32.076Z,4.70
2018-01-26T23:50:59.568Z,4.70
2018-01-26T23:53:27.867Z,4.70
2018-01-26T23:55:55.366Z,4.60
2018-01-26T23:58:22.846Z,4.60
